Tiempo atmosférico en la estación meteorológica de Vega de San Mateo, Las Palmas (1702 m.)



Fecha
DESCASC
Temp. máxima en grados centígrados (hora)
DESCASC
Temp. mínima en grados centígrados (hora)
DESCASC
Temp. media en grados centígrados
DESCASC
Racha de viento máxima en m/sg (hora)
DESCASC
Velocidad máxima media en intervalos de 10 minutos(hora)
DESCASC
Precipitaciones diarias en mm
DESCASC
Precipitaciones de 00:00 a 06:00 en mm
DESCASC
Precipitaciones de 06:00 a 12:00 en mm
DESCASC
Precipitaciones de 12:00 a 18:00 en mm
DESCASC
Precipitaciones de 18:00 a 24:00 en mm
DESCASC
23-06-2019 22 (10:00) 12.4 (03:40) 17.2 6.67 (16:20) 3.61 (15:10) 0 0 0 0 0
22-06-2019 -- (--) -- (--) -- -- (--) -- (--) -- 0 0 -- 0
21-06-2019 18.6 (17:10) 8.3 (02:50) 13.5 8.33 (02:40) 4.17 (02:40) 0 0 0 0 0
20-06-2019 21.4 (09:30) 9.2 (00:00) 15.3 7.22 (21:40) 3.89 (15:30) 0 0 0 0 0
19-06-2019 20.2 (10:40) 11.5 (00:00) 15.9 6.39 (17:10) 3.89 (17:10) 0 0 0 0 0
18-06-2019 19.6 (10:50) 12.6 (00:00) 16.1 7.22 (15:00) 4.44 (15:20) 0 0 0 0 0
17-06-2019 20.7 (12:00) 11 (00:00) 15.9 6.67 (14:50) 3.89 (15:40) 0 0 0 0 0
16-06-2019 21.7 (17:30) 9.6 (00:00) 15.7 5.28 (16:00) 3.06 (17:10) 0 0 0 0 0
15-06-2019 18.3 (09:20) 8.1 (00:00) 13.2 6.67 (15:40) 3.61 (15:40) 0 0 0 0 0
14-06-2019 15.4 (15:20) 4 (00:00) 9.7 7.5 (16:20) 4.17 (15:50) 0 0 0 0 0
13-06-2019 15.3 (16:40) 5.2 (00:00) 10.3 6.11 (16:40) 3.89 (18:30) 0 0 0 0 0
12-06-2019 16.8 (16:10) 7.5 (00:00) 12.1 11.67 (01:30) 5.56 (00:10) 0.4 0.2 0.2 0 0
11-06-2019 12.8 (12:50) 7 (00:00) 9.9 12.22 (01:40) 6.11 (02:00) 0 0 0 0 0
10-06-2019 19.2 (15:50) 9.4 (00:00) 14.3 11.39 (23:59) 5.56 (23:00) 0 0 0 0 0
09-06-2019 18.8 (12:20) 10.5 (00:00) 14.6 8.89 (20:10) 5 (19:40) 0 0 0 0 0
08-06-2019 18.6 (20:10) 7.8 (00:00) 13.2 7.22 (09:00) 4.17 (09:10) 0.2 0 0.2 0 0
07-06-2019 16.2 (18:10) 5.3 (00:00) 10.8 9.44 (04:20) 4.17 (00:30) 0 0 0 0 0
06-06-2019 17.8 (17:30) 5.1 (00:00) 11.4 8.61 (08:10) 5.28 (08:10) 0.2 0 0.2 0 0
05-06-2019 18.6 (14:20) 7.6 (00:00) 13.1 8.61 (20:20) 5 (07:20) 0 0 0 0 0
04-06-2019 24.3 (12:20) 12.6 (00:00) 18.4 10.83 (16:30) 5.83 (16:30) 0 0 0 0 0
03-06-2019 24.7 (14:40) 16.2 (00:00) 20.5 12.22 (03:50) 6.94 (00:40) 0 0 0 0 0
02-06-2019 25.7 (15:20) 16.4 (00:00) 21.1 10.83 (10:30) 6.39 (00:50) 0 0 0 0 0
01-06-2019 26.8 (15:40) 17.5 (00:00) 22.1 9.44 (06:50) 5.56 (06:50) 0 0 0 0 0
31-05-2019 26.3 (18:50) 14.3 (00:00) 20.3 7.22 (12:00) 3.61 (05:40) 0 0 0 0 0
30-05-2019 -- (--) -- (--) -- -- (--) -- (--) -- 0 0 -- 0
29-05-2019 23.8 (19:40) 10.9 (00:00) 17.3 5.83 (09:30) 3.06 (15:20) 0 0 0 0 0
28-05-2019 20.8 (15:10) 12.3 (00:00) 16.5 8.89 (04:30) 5.28 (04:20) 0 0 0 0 0

Gráficas

Temp. máximas Temp. mínimas Temp. medias Precipitaciones Rachas de viento máximas Velocidades máximas media en intervalos de 10 minutos

Datos horarios

Fecha y hora oficial Temperatura (ºC) Velocidad del viento (km/h) Dirección del viento Racha (km/h) Dirección de racha Precipitación (mm) Presión (hPa) Tendencia (hPa) Humedad (%)
2019-06-26 23:00:00 -- -- -- -- -- -- -- -- --
2019-06-26 22:00:00 -- -- -- -- -- -- -- -- --
2019-06-26 21:00:00 17.1 3 Nordeste 11 Oeste 0 -- -- 15
2019-06-26 20:00:00 19.8 5 Oeste 13 Oeste 0 -- -- 41
2019-06-26 19:00:00 20.1 8 Oeste 15 Oeste 0 -- -- 48
2019-06-26 18:00:00 20.3 9 Oeste 20 Oeste 0 -- -- 47
2019-06-26 17:00:00 18.8 14 Oeste 23 Oeste 0 -- -- 60
2019-06-26 16:00:00 18.9 12 Oeste 26 Noroeste 0 -- -- 60
2019-06-26 15:00:00 19.5 15 Oeste 26 Oeste 0 -- -- 54
2019-06-26 14:00:00 19.4 12 Oeste 21 Oeste 0 -- -- 57
2019-06-26 13:00:00 18.9 12 Oeste 19 Oeste 0 -- -- 60
2019-06-26 12:00:00 20.2 9 Oeste 16 Oeste 0 -- -- 50
2019-06-26 11:00:00 20.6 9 Oeste 14 Oeste 0 -- -- 33
2019-06-26 10:00:00 21.4 7 Oeste 15 Oeste 0 -- -- 12
2019-06-26 09:00:00 20.9 5 Oeste 11 Oeste 0 -- -- 12
2019-06-26 08:00:00 13.6 0 Calma 4 Sudeste 0 -- -- 17
2019-06-26 07:00:00 13.3 0 Calma 6 Sur 0 -- -- 20
2019-06-26 06:00:00 14.5 5 Sur 9 Sur 0 -- -- 20
2019-06-26 05:00:00 15.1 4 Sur 16 Oeste 0 -- -- 20
2019-06-26 04:00:00 15.9 9 Sudoeste 16 Sudoeste 0 -- -- 17
2019-06-26 03:00:00 15.8 5 Oeste 14 Oeste 0 -- -- 21
2019-06-26 02:00:00 15.4 3 Sur 9 Sudoeste 0 -- -- 17
2019-06-26 01:00:00 15.8 5 Sudoeste 10 Sudoeste 0 -- -- 19
2019-06-26 00:00:00 15.9 3 Sur 8 Sudoeste 0 -- -- 13
2019-06-25 23:00:00 15.5 4 Sudoeste 10 Oeste 0 -- -- 19
2019-06-25 22:00:00 17 10 Oeste 29 Oeste 0 -- -- 16
2019-06-25 21:00:00 17.5 18 Oeste 33 Oeste 0 -- -- 14
2019-06-25 20:00:00 18.3 13 Oeste 21 Oeste 0 -- -- 50
2019-06-25 19:00:00 19.1 13 Oeste 26 Oeste 0 -- -- 68
2019-06-25 18:00:00 19.5 17 Oeste 26 Oeste 0 -- -- 69
2019-06-25 17:00:00 20.7 15 Oeste 26 Oeste 0 -- -- 67
2019-06-25 16:00:00 19.5 14 Oeste 25 Oeste 0 -- -- 72
2019-06-25 15:00:00 20 13 Oeste 22 Oeste 0 -- -- 73
2019-06-25 14:00:00 20.6 14 Oeste 25 Oeste 0 -- -- 70
2019-06-25 13:00:00 20.1 13 Oeste 21 Oeste 0 -- -- 68
2019-06-25 12:00:00 20.3 11 Oeste 20 Oeste 0 -- -- 60
2019-06-25 11:00:00 20.5 9 Oeste 28 Noroeste 0 -- -- 57
2019-06-25 10:00:00 18.8 15 Oeste 25 Oeste 0 -- -- 54
2019-06-25 09:00:00 18 13 Oeste 22 Noroeste 0 -- -- 58
2019-06-25 08:00:00 14.9 11 Oeste 19 Oeste 0 -- -- 69
2019-06-25 07:00:00 14.8 9 Oeste 23 Sudoeste 0 -- -- 67
2019-06-25 06:00:00 15.4 11 Sudoeste 22 Oeste 0 -- -- 62
2019-06-25 05:00:00 15.6 12 Sudoeste 21 Sudoeste 0 -- -- 49
2019-06-25 04:00:00 15.5 10 Sudoeste 18 Sudoeste 0 -- -- 54
2019-06-25 03:00:00 14.6 5 Sudoeste 15 Sudoeste 0 -- -- 44
2019-06-25 02:00:00 15.3 8 Sudoeste 16 Sur 0 -- -- 44
2019-06-25 01:00:00 15 6 Sur 18 Sudoeste 0 -- -- 44
2019-06-25 00:00:00 15.9 8 Sudoeste 14 Sudoeste 0 -- -- 36
2019-06-24 23:00:00 15.4 6 Sur 10 Sudoeste 0 -- -- 40
2019-06-24 22:00:00 15.6 3 Sur 8 Sudoeste 0 -- -- 43
2019-06-24 21:00:00 17.8 5 Sudoeste 10 Oeste 0 -- -- 49
2019-06-24 20:00:00 20.3 5 Oeste 15 Oeste 0 -- -- 65
2019-06-24 19:00:00 21.1 7 Oeste 18 Oeste 0 -- -- 61
2019-06-24 18:00:00 20.7 13 Oeste 22 Noroeste 0 -- -- 63
2019-06-24 17:00:00 20.9 12 Oeste 23 Oeste 0 -- -- 62
2019-06-24 16:00:00 20.8 11 Oeste 22 Oeste 0 -- -- 63
2019-06-24 15:00:00 20.9 11 Oeste 23 Oeste 0 -- -- 63
2019-06-24 14:00:00 20.7 10 Oeste 19 Oeste 0 -- -- 63
2019-06-24 13:00:00 20.3 10 Oeste 21 Noroeste 0 -- -- 59
2019-06-24 12:00:00 20.1 5 Oeste 13 Oeste 0 -- -- 54
2019-06-24 11:00:00 20.3 6 Oeste 12 Noroeste 0 -- -- 47
2019-06-24 10:00:00 21.8 6 Oeste 11 Noroeste 0 -- -- 40
2019-06-24 09:00:00 18.3 5 Oeste 11 Oeste 0 -- -- 50
2019-06-24 08:00:00 14 6 Oeste 11 Oeste 0 -- -- 62
2019-06-24 07:00:00 14.2 9 Sudoeste 16 Sudoeste 0 -- -- 58
2019-06-24 06:00:00 12.6 6 Sudoeste 9 Sudoeste 0 -- -- 58
2019-06-24 05:00:00 12.7 3 Sudoeste 8 Sudoeste 0 -- -- 54
2019-06-24 04:00:00 13.8 5 Sudoeste 13 Sudoeste 0 -- -- 46
2019-06-24 03:00:00 13.4 5 Sudoeste 10 Sudoeste 0 -- -- 48
2019-06-24 02:00:00 14.8 6 Sudoeste 11 Sudoeste 0 -- -- 43
2019-06-24 01:00:00 15.3 4 Sudoeste 7 Sudoeste 0 -- -- 44
2019-06-24 00:00:00 13.5 2 Sudoeste 5 Este 0 -- -- 40
2019-06-23 23:00:00 13.6 2 Este 4 Este 0 -- -- 47
2019-06-23 22:00:00 13.4 3 Este 6 Este 0 -- -- 64
2019-06-23 21:00:00 15.4 0 Calma 12 Oeste 0 -- -- 72
2019-06-23 20:00:00 18.3 6 Oeste 13 Oeste 0 -- -- 67
2019-06-23 19:00:00 19.2 8 Oeste 20 Noroeste 0 -- -- 64
2019-06-23 18:00:00 19.3 10 Oeste 20 Oeste 0 -- -- 64
2019-06-23 17:00:00 19.5 12 Oeste 24 Oeste 0 -- -- 65
2019-06-23 16:00:00 19.8 11 Oeste 21 Oeste 0 -- -- 64
2019-06-23 15:00:00 19.9 11 Noroeste 21 Noroeste 0 -- -- 64
2019-06-23 14:00:00 19.8 11 Oeste 18 Oeste 0 -- -- 60
2019-06-23 13:00:00 19.3 12 Oeste 19 Oeste 0 -- -- 49
2019-06-23 12:00:00 20.6 9 Oeste 14 Noroeste 0 -- -- 27
2019-06-23 11:00:00 20.6 7 Oeste 13 Oeste 0 -- -- 24
2019-06-23 10:00:00 22 3 Norte 11 Este 0 -- -- 23
2019-06-23 09:00:00 20.4 3 Norte 13 Nordeste 0 -- -- 13
2019-06-23 08:00:00 14.3 7 Nordeste 13 Nordeste 0 -- -- 26
2019-06-23 07:00:00 14.2 7 Este 13 Este 0 -- -- 28
2019-06-23 06:00:00 15.1 4 Este 11 Este 0 -- -- 19
2019-06-23 05:00:00 13.1 2 Sudeste 7 Nordeste 0 -- -- 13
2019-06-23 04:00:00 14.5 4 Noroeste 12 Noroeste 0 -- -- 14
2019-06-23 03:00:00 13.2 2 Norte 12 Noroeste 0 -- -- 27
2019-06-23 02:00:00 13.8 6 Nordeste 15 Nordeste 0 -- -- 51
2019-06-23 01:00:00 14.2 6 Nordeste 13 Nordeste 0 -- -- 52
2019-06-23 00:00:00 14.3 4 Este 15 Nordeste 0 -- -- 51
2019-06-22 23:00:00 14.3 5 Nordeste 15 Nordeste 0 -- -- 50
2019-06-22 22:00:00 14.7 7 Nordeste 17 Este 0 -- -- 40
2019-06-22 21:00:00 15.5 8 Este 18 Este 0 -- -- 37
2019-06-22 20:00:00 17.5 9 Este 15 Nordeste 0 -- -- 26
2019-06-22 19:00:00 19.1 6 Nordeste 15 Oeste 0 -- -- 33
2019-06-22 18:00:00 -- -- -- -- -- -- -- -- --
2019-06-22 17:00:00 20.9 9 Oeste 19 Oeste 0 -- -- 40
2019-06-22 16:00:00 22 6 Noroeste 17 Nordeste 0 -- -- 36
2019-06-22 15:00:00 20.7 6 Nordeste 21 Este 0 -- -- 37
2019-06-22 14:00:00 20.8 8 Oeste 21 Noroeste 0 -- -- 34
2019-06-22 13:00:00 20 11 Noroeste 22 Norte 0 -- -- 28
2019-06-22 12:00:00 19.1 9 Noroeste 22 Norte 0 -- -- 27
2019-06-22 11:00:00 19.4 5 Nordeste 18 Nordeste 0 -- -- 24
2019-06-22 10:00:00 17.5 6 Este 17 Nordeste 0 -- -- 22
2019-06-22 09:00:00 16.3 7 Este 19 Este 0 -- -- 24
2019-06-22 08:00:00 12.9 10 Este 20 Este 0 -- -- 29
2019-06-22 07:00:00 12.6 9 Este 17 Sudeste 0 -- -- 29
2019-06-22 06:00:00 12.4 8 Este 22 Este 0 -- -- 29
2019-06-22 05:00:00 12.1 9 Este 19 Este 0 -- -- 30
2019-06-22 04:00:00 12.6 10 Este 20 Este 0 -- -- 28
2019-06-22 03:00:00 12.3 6 Este 23 Nordeste 0 -- -- 35
2019-06-22 02:00:00 12.7 7 Este 23 Nordeste 0 -- -- 32
2019-06-22 01:00:00 11.9 11 Este 22 Nordeste 0 -- -- 37
2019-06-22 00:00:00 12.5 9 Este 20 Este 0 -- -- 37
2019-06-21 23:00:00 12.8 7 Este 26 Este 0 -- -- 35
2019-06-21 22:00:00 12.5 8 Este 23 Este 0 -- -- 37
2019-06-21 21:00:00 12.7 8 Este 18 Este 0 -- -- 41
2019-06-21 20:00:00 14.8 9 Este 18 Nordeste 0 -- -- 41
2019-06-21 19:00:00 16.5 6 Nordeste 14 Norte 0 -- -- 43
2019-06-21 18:00:00 17.4 8 Nordeste 20 Noroeste 0 -- -- 42
2019-06-21 17:00:00 17.9 7 Este 17 Este 0 -- -- 51
2019-06-21 16:00:00 18 6 Nordeste 17 Este 0 -- -- 53
2019-06-21 15:00:00 18.2 5 Nordeste 16 Este 0 -- -- 54
2019-06-21 14:00:00 17.2 8 Este 17 Este 0 -- -- 49
2019-06-21 13:00:00 16 10 Este 20 Este 0 -- -- 47
2019-06-21 12:00:00 15.9 9 Este 24 Nordeste 0 -- -- 45
2019-06-21 11:00:00 15 10 Este 26 Nordeste 0 -- -- 47
2019-06-21 10:00:00 14.2 14 Este 25 Nordeste 0 -- -- 48
2019-06-21 09:00:00 12 13 Este 28 Este 0 -- -- 59
2019-06-21 08:00:00 10.4 13 Este 27 Este 0 -- -- 48
2019-06-21 07:00:00 11.2 9 Este 23 Nordeste 0 -- -- 46
2019-06-21 06:00:00 11.4 9 Este 22 Norte 0 -- -- 44
2019-06-21 05:00:00 9.1 11 Este 27 Nordeste 0 -- -- 66
2019-06-21 04:00:00 8.9 12 Este 29 Nordeste 0 -- -- 69
2019-06-21 03:00:00 8.8 12 Este 30 Nordeste 0 -- -- 75
2019-06-21 02:00:00 9.3 11 Este 24 Nordeste 0 -- -- 72
2019-06-21 01:00:00 8.8 14 Nordeste 23 Nordeste 0 -- -- 74
2019-06-21 00:00:00 9.5 10 Nordeste 24 Nordeste 0 -- -- 69
2019-06-20 23:00:00 11.6 7 Este 21 Este 0 -- -- 52
2019-06-20 22:00:00 10.8 7 Nordeste 26 Nordeste 0 -- -- 53
2019-06-20 21:00:00 10 9 Nordeste 19 Nordeste 0 -- -- 68
2019-06-20 20:00:00 13.3 7 Este 14 Nordeste 0 -- -- 63
2019-06-20 19:00:00 15.9 6 Nordeste 16 Oeste 0 -- -- 62
2019-06-20 18:00:00 17.4 11 Oeste 20 Oeste 0 -- -- 56
2019-06-20 17:00:00 18.7 9 Oeste 19 Oeste 0 -- -- 50
2019-06-20 16:00:00 18.7 12 Oeste 23 Noroeste 0 -- -- 48
2019-06-20 15:00:00 19.2 11 Oeste 22 Oeste 0 -- -- 46
2019-06-20 14:00:00 19 11 Oeste 18 Noroeste 0 -- -- 46
2019-06-20 13:00:00 18 9 Oeste 15 Oeste 0 -- -- 50
2019-06-20 12:00:00 17.1 6 Oeste 14 Oeste 0 -- -- 55
2019-06-20 11:00:00 17.1 6 Oeste 11 Noroeste 0 -- -- 53
2019-06-20 10:00:00 19.1 7 Oeste 14 Oeste 0 -- -- 21
2019-06-20 09:00:00 20.7 2 Norte 7 Norte 0 -- -- 16
2019-06-20 08:00:00 12.5 4 Norte 10 Norte 0 -- -- 21
2019-06-20 07:00:00 11.9 6 Nordeste 9 Nordeste 0 -- -- 20
2019-06-20 06:00:00 12 2 Nordeste 12 Norte 0 -- -- 19
2019-06-20 05:00:00 12.5 5 Nordeste 12 Nordeste 0 -- -- 20
2019-06-20 04:00:00 12.5 6 Nordeste 16 Nordeste 0 -- -- 24
2019-06-20 03:00:00 13.6 9 Nordeste 15 Nordeste 0 -- -- 22
2019-06-20 02:00:00 13.6 9 Nordeste 15 Nordeste 0 -- -- 22
2019-06-20 01:00:00 13.8 9 Nordeste 16 Este 0 -- -- 22
2019-06-20 00:00:00 14.4 5 Nordeste 15 Nordeste 0 -- -- 24
2019-06-19 23:00:00 15.4 6 Norte 14 Norte 0 -- -- 16
2019-06-19 22:00:00 14.5 3 Noroeste 13 Noroeste 0 -- -- 19
2019-06-19 21:00:00 15 4 Noroeste 10 Norte 0 -- -- 32
2019-06-19 20:00:00 17.9 5 Oeste 13 Oeste 0 -- -- 56
2019-06-19 19:00:00 18.3 8 Oeste 17 Oeste 0 -- -- 55
2019-06-19 18:00:00 18 10 Oeste 23 Oeste 0 -- -- 58
2019-06-19 17:00:00 18.5 13 Oeste 21 Oeste 0 -- -- 58
2019-06-19 16:00:00 18.7 12 Oeste 22 Noroeste 0 -- -- 57
2019-06-19 15:00:00 18 11 Oeste 21 Noroeste 0 -- -- 61
2019-06-19 14:00:00 17.7 12 Noroeste 20 Oeste 0 -- -- 63
2019-06-19 13:00:00 17.8 10 Noroeste 19 Oeste 0 -- -- 59
2019-06-19 12:00:00 18 9 Oeste 15 Noroeste 0 -- -- 52
2019-06-19 11:00:00 20.2 5 Oeste 11 Oeste 0 -- -- 23
2019-06-19 10:00:00 19 6 Oeste 10 Noroeste 0 -- -- 15
2019-06-19 09:00:00 19 3 Oeste 8 Noroeste 0 -- -- 17
2019-06-19 08:00:00 12.3 2 Este 5 Sudeste 0 -- -- 23
2019-06-19 07:00:00 11.5 0 Calma 12 Sudoeste 0 -- -- 22
2019-06-19 06:00:00 13.1 6 Sudoeste 14 Oeste 0 -- -- 18
2019-06-19 05:00:00 13.6 7 Oeste 15 Sudoeste 0 -- -- 18
2019-06-19 04:00:00 13.6 5 Sudoeste 14 Sur 0 -- -- 14
2019-06-19 03:00:00 14.6 7 Sudoeste 18 Sudoeste 0 -- -- 14
2019-06-19 02:00:00 14.8 8 Sudoeste 16 Oeste 0 -- -- 26
2019-06-19 01:00:00 15.1 7 Sudoeste 15 Sudoeste 0 -- -- 24
2019-06-19 00:00:00 15.1 5 Sudoeste 14 Oeste 0 -- -- 24
2019-06-18 23:00:00 15.5 5 Sudoeste 14 Sudoeste 0 -- -- 28
2019-06-18 22:00:00 15 7 Sudoeste 14 Sudoeste 0 -- -- 26
2019-06-18 21:00:00 14.1 5 Oeste 13 Sudoeste 0 -- -- 69
2019-06-18 20:00:00 19.4 9 Oeste 15 Oeste 0 -- -- 37
2019-06-18 19:00:00 15.9 9 Oeste 15 Oeste 0 -- -- 83
2019-06-18 18:00:00 -- -- -- -- -- -- -- -- --
2019-06-18 17:00:00 18.6 13 Oeste 23 Noroeste 0 -- -- 68
2019-06-18 16:00:00 18.7 16 Oeste 24 Oeste 0 -- -- 68
2019-06-18 15:00:00 18.9 15 Oeste 26 Noroeste 0 -- -- 66
2019-06-18 14:00:00 18.7 14 Oeste 22 Oeste 0 -- -- 66
2019-06-18 13:00:00 18.3 11 Oeste 17 Noroeste 0 -- -- 65
2019-06-18 12:00:00 18.2 10 Oeste 16 Oeste 0 -- -- 58
2019-06-18 11:00:00 19.5 8 Noroeste 19 Oeste 0 -- -- 48
2019-06-18 10:00:00 18.8 9 Oeste 18 Oeste 0 -- -- 43
2019-06-18 09:00:00 18.3 5 Sudoeste 13 Oeste 0 -- -- 39
2019-06-18 08:00:00 14.4 5 Sudoeste 15 Sudoeste 0 -- -- 33
2019-06-18 07:00:00 13.6 7 Sudoeste 13 Sur 0 -- -- 44
2019-06-18 06:00:00 13.3 6 Sudoeste 12 Sudoeste 0 -- -- 51
2019-06-18 05:00:00 13.5 5 Sudoeste 11 Sudoeste 0 -- -- 47
2019-06-18 04:00:00 13.5 4 Sudoeste 9 Sudoeste 0 -- -- 35
2019-06-18 03:00:00 13.6 4 Sur 8 Sudoeste 0 -- -- 42
2019-06-18 02:00:00 13.5 3 Sur 6 Sur 0 -- -- 46
2019-06-18 01:00:00 13.2 0 Calma 5 Sudoeste 0 -- -- 47
2019-06-18 00:00:00 12.6 0 Calma 5 Este 0 -- -- 52
2019-06-17 23:00:00 13.1 3 Nordeste 6 Este 0 -- -- 51
2019-06-17 22:00:00 13.2 2 Este 5 Nordeste 0 -- -- 59
2019-06-17 21:00:00 16.3 0 Calma 8 Oeste 0 -- -- 55
2019-06-17 20:00:00 18.8 4 Oeste 14 Oeste 0 -- -- 52
2019-06-17 19:00:00 19 8 Oeste 17 Noroeste 0 -- -- 58
2019-06-17 18:00:00 19.7 10 Oeste 19 Oeste 0 -- -- 56
2019-06-17 17:00:00 19.2 12 Oeste 21 Oeste 0 -- -- 57
2019-06-17 16:00:00 19.5 13 Oeste 21 Oeste 0 -- -- 56
2019-06-17 15:00:00 20 12 Oeste 24 Oeste 0 -- -- 44
2019-06-17 14:00:00 19 12 Oeste 21 Oeste 0 -- -- 46
2019-06-17 13:00:00 19.9 10 Noroeste 20 Oeste 0 -- -- 40
2019-06-17 12:00:00 20.7 8 Noroeste 15 Oeste 0 -- -- 31
2019-06-17 11:00:00 20.2 8 Noroeste 15 Oeste 0 -- -- 29
2019-06-17 10:00:00 20.1 7 Oeste 13 Oeste 0 -- -- 30
2019-06-17 09:00:00 19.5 5 Oeste 16 Oeste 0 -- -- 29
2019-06-17 08:00:00 14.4 6 Oeste 16 Sudoeste 0 -- -- 34
2019-06-17 07:00:00 12.3 6 Sudoeste 10 Sudoeste 0 -- -- 39
2019-06-17 06:00:00 11.3 0 Calma 8 Noroeste 0 -- -- 51
2019-06-17 05:00:00 11.2 0 Calma 3 Este 0 -- -- 53
2019-06-17 04:00:00 11.5 0 Calma 4 Sur 0 -- -- 53
2019-06-17 03:00:00 11.9 0 Calma 4 Sudeste 0 -- -- 54
2019-06-17 02:00:00 11.8 2 Este 5 Este 0 -- -- 55
2019-06-17 01:00:00 12.1 3 Este 4 Este 0 -- -- 54
2019-06-17 00:00:00 12.5 2 Norte 6 Noroeste 0 -- -- 53
2019-06-16 23:00:00 13.1 0 Calma 5 Norte 0 -- -- 51
2019-06-16 22:00:00 14.8 3 Norte 7 Norte 0 -- -- 46
2019-06-16 21:00:00 16.8 2 Norte 11 Oeste 0 -- -- 31
2019-06-16 20:00:00 20.3 7 Oeste 14 Oeste 0 -- -- 33
2019-06-16 19:00:00 20.5 9 Oeste 17 Oeste 0 -- -- 41
2019-06-16 18:00:00 21 10 Oeste 19 Oeste 0 -- -- 45
2019-06-16 17:00:00 21 8 Oeste 19 Oeste 0 -- -- 47
2019-06-16 16:00:00 20.6 8 Noroeste 19 Noroeste 0 -- -- 49
2019-06-16 15:00:00 19.1 6 Oeste 19 Oeste 0 -- -- 55
2019-06-16 14:00:00 19.4 6 Oeste 15 Oeste 0 -- -- 49
2019-06-16 13:00:00 19.7 8 Oeste 14 Oeste 0 -- -- 37
2019-06-16 12:00:00 20.5 8 Oeste 13 Oeste 0 -- -- 17
2019-06-16 11:00:00 20.3 7 Oeste 12 Oeste 0 -- -- 9
2019-06-16 10:00:00 20.3 5 Oeste 10 Sudoeste 0 -- -- 9
2019-06-16 09:00:00 19.3 4 Oeste 10 Oeste 0 -- -- 8
2019-06-16 08:00:00 12 3 Sur 4 Sur 0 -- -- 12
2019-06-16 07:00:00 10.9 2 Sur 5 Sur 0 -- -- 17
2019-06-16 06:00:00 10.7 3 Sur 5 Sur 0 -- -- 16
2019-06-16 05:00:00 10.6 2 Sur 4 Sur 0 -- -- 17
2019-06-16 04:00:00 10.3 0 Calma 3 Este 0 -- -- 16
2019-06-16 03:00:00 10.1 0 Calma 2 Nordeste 0 -- -- 16
2019-06-16 02:00:00 10.4 2 Este 4 Sudeste 0 -- -- 20
2019-06-16 01:00:00 10.7 0 Calma 3 Sudoeste 0 -- -- 20
2019-06-16 00:00:00 11.2 0 Calma 4 Norte 0 -- -- 21
2019-06-15 23:00:00 11.4 2 Este 4 Sudeste 0 -- -- 23
2019-06-15 22:00:00 10.4 2 Nordeste 15 Oeste 0 -- -- 40
2019-06-15 21:00:00 12.4 2 Nordeste 10 Oeste 0 -- -- 38
2019-06-15 20:00:00 15.4 5 Oeste 11 Oeste 0 -- -- 67
2019-06-15 19:00:00 16.2 7 Oeste 18 Oeste 0 -- -- 64
2019-06-15 18:00:00 16.6 10 Oeste 17 Sudoeste 0 -- -- 61
2019-06-15 17:00:00 15.8 10 Oeste 18 Noroeste 0 -- -- 66
2019-06-15 16:00:00 16.6 12 Oeste 24 Oeste 0 -- -- 64
2019-06-15 15:00:00 16.1 11 Oeste 21 Oeste 0 -- -- 62
2019-06-15 14:00:00 16.7 8 Oeste 20 Oeste 0 -- -- 57
2019-06-15 13:00:00 16.1 9 Oeste 18 Oeste 0 -- -- 54
2019-06-15 12:00:00 16.3 4 Noroeste 13 Oeste 0 -- -- 50
2019-06-15 11:00:00 17.5 4 Oeste 11 Oeste 0 -- -- 30
2019-06-15 10:00:00 17.5 3 Sudoeste 16 Noroeste 0 -- -- 22
2019-06-15 09:00:00 17 2 Este 8 Oeste 0 -- -- 12
2019-06-15 08:00:00 11.1 0 Calma 5 Norte 0 -- -- 17
2019-06-15 07:00:00 9.3 3 Este 4 Este 0 -- -- 13
2019-06-15 06:00:00 8.5 0 Calma 8 Este 0 -- -- 14
2019-06-15 05:00:00 9 5 Este 15 Nordeste 0 -- -- 17
2019-06-15 04:00:00 10.3 8 Nordeste 13 Este 0 -- -- 13
2019-06-15 03:00:00 9.7 6 Nordeste 12 Nordeste 0 -- -- 16
2019-06-15 02:00:00 9.1 8 Este 13 Nordeste 0 -- -- 19
2019-06-15 01:00:00 9.3 6 Este 16 Nordeste 0 -- -- 19
2019-06-15 00:00:00 9.3 9 Este 22 Nordeste 0 -- -- 23
2019-06-14 23:00:00 7.8 10 Nordeste 18 Nordeste 0 -- -- 56
2019-06-14 22:00:00 9 6 Nordeste 14 Nordeste 0 -- -- 35
2019-06-14 21:00:00 8.8 0 Calma 17 Oeste 0 -- -- 83
2019-06-14 20:00:00 11.9 8 Oeste 15 Oeste 0 -- -- 73
2019-06-14 19:00:00 11.2 9 Oeste 21 Oeste 0 -- -- 78
2019-06-14 18:00:00 11.2 9 Oeste 20 Noroeste 0 -- -- 81
2019-06-14 17:00:00 12.8 13 Oeste 27 Oeste 0 -- -- 76
2019-06-14 16:00:00 14.2 14 Oeste 26 Oeste 0 -- -- 69
2019-06-14 15:00:00 14.9 9 Oeste 18 Oeste 0 -- -- 65
2019-06-14 14:00:00 14 10 Oeste 24 Oeste 0 -- -- 70
2019-06-14 13:00:00 13.8 12 Oeste 24 Oeste 0 -- -- 64
2019-06-14 12:00:00 13.4 9 Oeste 16 Oeste 0 -- -- 58
2019-06-14 11:00:00 12.1 8 Oeste 13 Oeste 0 -- -- 62
2019-06-14 10:00:00 12.4 7 Este 16 Nordeste 0 -- -- 61
2019-06-14 09:00:00 8.4 6 Este 18 Nordeste 0 -- -- 81
2019-06-14 08:00:00 4.8 5 Nordeste 12 Nordeste 0 -- -- 94
2019-06-14 07:00:00 6.8 2 Noroeste 5 Oeste 0 -- -- 47
2019-06-14 06:00:00 6.6 0 Calma 7 Este 0 -- -- 44
2019-06-14 05:00:00 5.2 3 Nordeste 7 Nordeste 0 -- -- 59
2019-06-14 04:00:00 7 0 Calma 5 Este 0 -- -- 27
2019-06-14 03:00:00 8 2 Nordeste 4 Este 0 -- -- 22
2019-06-14 02:00:00 4.9 0 Calma 10 Nordeste 0 -- -- 60
2019-06-14 01:00:00 5.2 4 Nordeste 17 Nordeste 0 -- -- 96
2019-06-14 00:00:00 5.3 10 Nordeste 22 Nordeste 0 -- -- 96
2019-06-13 23:00:00 5.5 13 Nordeste 22 Nordeste 0 -- -- 95
2019-06-13 22:00:00 5.9 5 Nordeste 10 Nordeste 0 -- -- 93
2019-06-13 21:00:00 8.2 2 Noroeste 14 Oeste 0 -- -- 86
2019-06-13 20:00:00 10.4 11 Oeste 18 Noroeste 0 -- -- 79
2019-06-13 19:00:00 12.6 12 Oeste 22 Oeste 0 -- -- 70
2019-06-13 18:00:00 14.2 12 Oeste 22 Oeste 0 -- -- 62
2019-06-13 17:00:00 15.3 10 Oeste 22 Noroeste 0 -- -- 56
2019-06-13 16:00:00 14.4 12 Oeste 22 Oeste 0 -- -- 60
2019-06-13 15:00:00 14.5 11 Oeste 20 Oeste 0 -- -- 59
2019-06-13 14:00:00 13.7 11 Oeste 20 Oeste 0 -- -- 61
2019-06-13 13:00:00 14.3 8 Noroeste 14 Oeste 0 -- -- 60
2019-06-13 12:00:00 12.9 7 Oeste 15 Noroeste 0 -- -- 63
2019-06-13 11:00:00 9.2 6 Este 18 Nordeste 0 -- -- 78
2019-06-13 10:00:00 9.5 6 Nordeste 15 Nordeste 0 -- -- 82
2019-06-13 09:00:00 10.9 4 Oeste 17 Nordeste 0 -- -- 69
2019-06-13 08:00:00 8.9 3 Norte 13 Este 0 -- -- 57
2019-06-13 07:00:00 5.8 2 Este 17 Este 0 -- -- 85
2019-06-13 06:00:00 8 3 Nordeste 10 Noroeste 0 -- -- 54
2019-06-13 05:00:00 7.9 5 Norte 19 Noroeste 0 -- -- 61
2019-06-13 04:00:00 5.8 7 Nordeste 21 Norte 0 -- -- 93
2019-06-13 03:00:00 6.2 3 Este 11 Nordeste 0 -- -- 57
2019-06-13 02:00:00 7 3 Nordeste 13 Nordeste 0 -- -- 65
2019-06-13 01:00:00 9.3 4 Nordeste 15 Este 0 -- -- 34
2019-06-13 00:00:00 9 5 Nordeste 13 Nordeste 0 -- -- 34
2019-06-12 23:00:00 9.1 7 Nordeste 17 Nordeste 0 -- -- 47
2019-06-12 22:00:00 10 6 Norte 16 Norte 0 -- -- 46
2019-06-12 21:00:00 9.4 3 Norte 13 Norte 0 -- -- 64
2019-06-12 20:00:00 13.9 4 Norte 18 Oeste 0 -- -- 60
2019-06-12 19:00:00 14.9 8 Oeste 15 Oeste 0 -- -- 61
2019-06-12 18:00:00 15.8 7 Oeste 19 Oeste 0 -- -- 55
2019-06-12 17:00:00 16.1 10 Oeste 21 Oeste 0 -- -- 50
2019-06-12 16:00:00 16.2 8 Oeste 24 Oeste 0 -- -- 51
2019-06-12 15:00:00 16.4 14 Oeste 26 Noroeste 0 -- -- 42
2019-06-12 14:00:00 16.4 8 Noroeste 19 Oeste 0 -- -- 50
2019-06-12 13:00:00 14.9 7 Oeste 21 Oeste 0 -- -- 66
2019-06-12 12:00:00 12.7 4 Norte 18 Nordeste 0 -- -- 80
2019-06-12 11:00:00 10.5 6 Este 26 Este 0 -- -- 96
2019-06-12 10:00:00 9.7 9 Este 27 Este 0.2 -- -- 97
2019-06-12 09:00:00 9 17 Este 33 Este 0 -- -- 98
2019-06-12 08:00:00 7.5 12 Este 32 Este 0 -- -- 97
2019-06-12 07:00:00 8.3 12 Este 33 Este 0 -- -- 97
2019-06-12 06:00:00 8.1 14 Este 34 Este 0 -- -- 97
2019-06-12 05:00:00 8.3 16 Este 34 Este 0.2 -- -- 97
2019-06-12 04:00:00 8.4 14 Este 36 Este 0 -- -- 97
2019-06-12 03:00:00 8.3 18 Este 35 Este 0 -- -- 96
2019-06-12 02:00:00 8 16 Este 42 Este 0 -- -- 93
2019-06-12 01:00:00 9.2 15 Este 34 Este 0 -- -- 78
2019-06-12 00:00:00 7.8 18 Este 36 Este 0 -- -- 94
2019-06-11 23:00:00 7.8 17 Este 39 Nordeste 0 -- -- 93
2019-06-11 22:00:00 7.6 16 Este 39 Este 0 -- -- 94
2019-06-11 21:00:00 8.2 18 Este 40 Este 0 -- -- 90
2019-06-11 20:00:00 9.7 18 Este 38 Este 0 -- -- 81
2019-06-11 19:00:00 10.8 14 Este 43 Este 0 -- -- 75
2019-06-11 18:00:00 12.1 17 Este 41 Este 0 -- -- 72
2019-06-11 17:00:00 12.6 12 Este 31 Nordeste 0 -- -- 73
2019-06-11 16:00:00 12 10 Nordeste 32 Este 0 -- -- 79
2019-06-11 15:00:00 11 15 Este 34 Este 0 -- -- 88
2019-06-11 14:00:00 12.1 14 Este 32 Este 0 -- -- 85
2019-06-11 13:00:00 12.3 13 Este 33 Nordeste 0 -- -- 80
2019-06-11 12:00:00 11.7 13 Este 35 Este 0 -- -- 79
2019-06-11 11:00:00 9.5 14 Este 38 Este 0 -- -- 93
2019-06-11 10:00:00 7.6 20 Este 38 Este 0 -- -- 95
2019-06-11 09:00:00 7.5 13 Este 34 Este 0 -- -- 96
2019-06-11 08:00:00 7.4 14 Este 42 Este 0 -- -- 95
2019-06-11 07:00:00 7.6 18 Este 37 Este 0 -- -- 85
2019-06-11 06:00:00 9.5 17 Este 39 Este 0 -- -- 63
2019-06-11 05:00:00 10.2 19 Este 34 Este 0 -- -- 60
2019-06-11 04:00:00 10.1 17 Este 38 Este 0 -- -- 56
2019-06-11 03:00:00 10.5 17 Este 36 Nordeste 0 -- -- 50
2019-06-11 02:00:00 10.7 22 Este 44 Este 0 -- -- 52
2019-06-11 01:00:00 11.5 19 Este 39 Este 0 -- -- 37
2019-06-11 00:00:00 12.5 18 Este 41 Este 0 -- -- 36
2019-06-10 23:00:00 12.7 20 Este 34 Nordeste 0 -- -- 13
2019-06-10 22:00:00 12.7 18 Este 33 Este 0 -- -- 22
2019-06-10 21:00:00 12.4 15 Este 33 Este 0 -- -- 30
2019-06-10 20:00:00 13.1 14 Este 30 Este 0 -- -- 45
2019-06-10 19:00:00 15 12 Este 25 Este 0 -- -- 34
2019-06-10 18:00:00 16.1 10 Este 22 Nordeste 0 -- -- 27
2019-06-10 17:00:00 16.1 11 Este 21 Este 0 -- -- 35
2019-06-10 16:00:00 19.2 8 Este 19 Este 0 -- -- 28
2019-06-10 15:00:00 18.2 8 Este 24 Este 0 -- -- 35
2019-06-10 14:00:00 18.8 6 Este 20 Este 0 -- -- 34
2019-06-10 13:00:00 17.2 9 Este 21 Este 0 -- -- 25
2019-06-10 12:00:00 15.7 12 Este 28 Nordeste 0 -- -- 32
2019-06-10 11:00:00 15.3 18 Nordeste 34 Nordeste 0 -- -- 30
2019-06-10 10:00:00 14.5 14 Nordeste 35 Este 0 -- -- 30
2019-06-10 09:00:00 12.9 14 Este 32 Nordeste 0 -- -- 29
2019-06-10 08:00:00 10.9 12 Este 29 Este 0 -- -- 36
2019-06-10 07:00:00 10.8 10 Este 27 Este 0 -- -- 34
2019-06-10 06:00:00 10.3 13 Este 29 Este 0 -- -- 40
2019-06-10 05:00:00 9.7 14 Este 29 Nordeste 0 -- -- 48
2019-06-10 04:00:00 10.9 15 Este 28 Este 0 -- -- 40
2019-06-10 03:00:00 10.9 12 Este 27 Este 0 -- -- 41
2019-06-10 02:00:00 11.1 14 Este 32 Nordeste 0 -- -- 38
2019-06-10 01:00:00 11.6 14 Este 31 Este 0 -- -- 38
2019-06-10 00:00:00 11.9 15 Este 27 Este 0 -- -- 41
2019-06-09 23:00:00 11.8 15 Este 29 Nordeste 0 -- -- 40
2019-06-09 22:00:00 12.4 15 Este 31 Este 0 -- -- 31
2019-06-09 21:00:00 12.8 15 Este 32 Nordeste 0 -- -- 30
2019-06-09 20:00:00 14.2 16 Este 31 Este 0 -- -- 31
2019-06-09 19:00:00 15.4 15 Este 28 Este 0 -- -- 29
2019-06-09 18:00:00 17 14 Este 26 Nordeste 0 -- -- 26
2019-06-09 17:00:00 17.1 13 Este 26 Nordeste 0 -- -- 21
2019-06-09 16:00:00 17 15 Nordeste 27 Este 0 -- -- 24
2019-06-09 15:00:00 18.1 13 Este 22 Nordeste 0 -- -- 19
2019-06-09 14:00:00 18.3 12 Este 21 Este 0 -- -- 24
2019-06-09 13:00:00 18.3 9 Este 19 Este 0 -- -- 19
2019-06-09 12:00:00 17.6 10 Este 22 Este 0 -- -- 15
2019-06-09 11:00:00 17.4 11 Este 26 Este 0 -- -- 14
2019-06-09 10:00:00 15.9 11 Este 21 Este 0 -- -- 18
2019-06-09 09:00:00 15.7 9 Este 26 Este 0 -- -- 13
2019-06-09 08:00:00 11.2 9 Este 20 Este 0 -- -- 33
2019-06-09 07:00:00 12.1 8 Nordeste 19 Nordeste 0 -- -- 8
2019-06-09 06:00:00 12.8 8 Nordeste 20 Noroeste 0 -- -- 15
2019-06-09 05:00:00 12.6 4 Nordeste 12 Nordeste 0 -- -- 8
2019-06-09 04:00:00 11.2 6 Nordeste 13 Nordeste 0 -- -- 8
2019-06-09 03:00:00 12.6 6 Nordeste 17 Nordeste 0 -- -- 8
2019-06-09 02:00:00 13.1 7 Nordeste 18 Nordeste 0 -- -- 6
2019-06-09 01:00:00 10.9 9 Nordeste 17 Este 0 -- -- 16
2019-06-09 00:00:00 12.9 9 Nordeste 17 Nordeste 0 -- -- 10
2019-06-08 23:00:00 12.3 8 Nordeste 15 Este 0 -- -- 23
2019-06-08 22:00:00 13.8 4 Nordeste 9 Norte 0 -- -- 30
2019-06-08 21:00:00 13.2 4 Norte 6 Noroeste 0 -- -- 39
2019-06-08 20:00:00 17.7 3 Oeste 13 Oeste 0 -- -- 50
2019-06-08 19:00:00 16 5 Oeste 18 Oeste 0 -- -- 55
2019-06-08 18:00:00 15.8 9 Oeste 20 Oeste 0 -- -- 60
2019-06-08 17:00:00 16.5 11 Oeste 19 Oeste 0 -- -- 63
2019-06-08 16:00:00 15.9 11 Oeste 19 Oeste 0 -- -- 69
2019-06-08 15:00:00 17.1 11 Oeste 22 Oeste 0 -- -- 63
2019-06-08 14:00:00 15.3 4 Noroeste 14 Oeste 0 -- -- 73
2019-06-08 13:00:00 14.9 8 Noroeste 15 Oeste 0 -- -- 73
2019-06-08 12:00:00 14 6 Oeste 14 Nordeste 0 -- -- 87
2019-06-08 11:00:00 10.9 8 Este 19 Nordeste 0 -- -- 97
2019-06-08 10:00:00 10.3 11 Nordeste 25 Nordeste 0 -- -- 98
2019-06-08 09:00:00 8.6 14 Nordeste 26 Este 0 -- -- 98
2019-06-08 08:00:00 8 15 Nordeste 25 Nordeste 0.2 -- -- 97
2019-06-08 07:00:00 8.3 10 Nordeste 21 Nordeste 0 -- -- 98
2019-06-08 06:00:00 8.3 13 Nordeste 24 Este 0 -- -- 97
2019-06-08 05:00:00 8.8 13 Nordeste 24 Este 0 -- -- 97
2019-06-08 04:00:00 8.7 13 Nordeste 22 Nordeste 0 -- -- 97
2019-06-08 03:00:00 8.8 10 Nordeste 19 Nordeste 0 -- -- 96
2019-06-08 02:00:00 8.2 7 Este 13 Este 0 -- -- 95
2019-06-08 01:00:00 10.6 0 Calma 5 Nordeste 0 -- -- 42
2019-06-08 00:00:00 9.3 3 Nordeste 15 Nordeste 0 -- -- 56
2019-06-07 23:00:00 10.3 8 Nordeste 17 Nordeste 0 -- -- 65
2019-06-07 22:00:00 10.9 9 Nordeste 18 Nordeste 0 -- -- 51
2019-06-07 21:00:00 9.5 11 Nordeste 19 Este 0 -- -- 82
2019-06-07 20:00:00 12.7 6 Este 18 Este 0 -- -- 69
2019-06-07 19:00:00 14.2 10 Nordeste 18 Este 0 -- -- 71
2019-06-07 18:00:00 15 8 Nordeste 17 Este 0 -- -- 71
2019-06-07 17:00:00 14.1 10 Nordeste 20 Este 0 -- -- 74
2019-06-07 16:00:00 15.2 8 Nordeste 19 Nordeste 0 -- -- 69
2019-06-07 15:00:00 15.1 10 Nordeste 20 Nordeste 0 -- -- 68
2019-06-07 14:00:00 14.4 11 Nordeste 22 Nordeste 0 -- -- 68
2019-06-07 13:00:00 14.9 8 Nordeste 24 Este 0 -- -- 58
2019-06-07 12:00:00 12 13 Este 24 Nordeste 0 -- -- 74
2019-06-07 11:00:00 14.2 13 Este 24 Nordeste 0 -- -- 49
2019-06-07 10:00:00 13.8 12 Este 25 Este 0 -- -- 55
2019-06-07 09:00:00 12.1 12 Este 31 Este 0 -- -- 59
2019-06-07 08:00:00 9.2 13 Este 28 Este 0 -- -- 70
2019-06-07 07:00:00 8.8 10 Este 27 Nordeste 0 -- -- 70
2019-06-07 06:00:00 8.1 13 Este 28 Nordeste 0 -- -- 76
2019-06-07 05:00:00 8.5 13 Este 34 Este 0 -- -- 74
2019-06-07 04:00:00 8.4 15 Este 29 Este 0 -- -- 67
2019-06-07 03:00:00 8.6 13 Este 24 Este 0 -- -- 65
2019-06-07 02:00:00 5.7 14 Este 26 Este 0 -- -- 96
2019-06-07 01:00:00 6 15 Nordeste 25 Este 0 -- -- 69
2019-06-07 00:00:00 9.6 14 Nordeste 26 Nordeste 0 -- -- 15
2019-06-06 23:00:00 9.9 12 Este 27 Este 0 -- -- 14
2019-06-06 22:00:00 9.7 10 Este 22 Este 0 -- -- 24
2019-06-06 21:00:00 10.2 10 Este 28 Este 0 -- -- 14
2019-06-06 20:00:00 12.1 12 Este 21 Este 0 -- -- 20
2019-06-06 19:00:00 14.4 7 Este 17 Norte 0 -- -- 15
2019-06-06 18:00:00 17.2 8 Noroeste 16 Noroeste 0 -- -- 23
2019-06-06 17:00:00 16.5 7 Noroeste 16 Oeste 0 -- -- 57
2019-06-06 16:00:00 15.6 4 Nordeste 16 Nordeste 0 -- -- 65
2019-06-06 15:00:00 14.1 9 Nordeste 19 Nordeste 0 -- -- 70
2019-06-06 14:00:00 12.1 11 Nordeste 21 Este 0 -- -- 76
2019-06-06 13:00:00 9.9 11 Nordeste 22 Este 0 -- -- 91
2019-06-06 12:00:00 7.7 9 Este 25 Nordeste 0 -- -- 98
2019-06-06 11:00:00 7.8 12 Nordeste 24 Este 0 -- -- 97
2019-06-06 10:00:00 7.4 13 Nordeste 29 Nordeste 0 -- -- 98
2019-06-06 09:00:00 6 17 Nordeste 31 Nordeste 0 -- -- 98
2019-06-06 08:00:00 5.9 18 Nordeste 31 Nordeste 0 -- -- 99
2019-06-06 07:00:00 5.6 14 Nordeste 24 Este 0.2 -- -- 99
2019-06-06 06:00:00 5.4 11 Este 23 Nordeste 0 -- -- 98
2019-06-06 05:00:00 5.5 12 Este 23 Este 0 -- -- 98
2019-06-06 04:00:00 6 11 Nordeste 24 Nordeste 0 -- -- 98
2019-06-06 03:00:00 6.3 14 Nordeste 25 Nordeste 0 -- -- 98
2019-06-06 02:00:00 6.7 13 Este 27 Este 0 -- -- 97
2019-06-06 01:00:00 7.9 14 Nordeste 31 Nordeste 0 -- -- 98
2019-06-06 00:00:00 7.9 14 Nordeste 29 Nordeste 0 -- -- 97
2019-06-05 23:00:00 7.9 16 Nordeste 27 Nordeste 0 -- -- 97
2019-06-05 22:00:00 8.7 16 Nordeste 27 Este 0 -- -- 97
2019-06-05 21:00:00 8 14 Nordeste 31 Este 0 -- -- 96
2019-06-05 20:00:00 8.7 13 Nordeste 26 Nordeste 0 -- -- 94
2019-06-05 19:00:00 9.6 13 Este 22 Nordeste 0 -- -- 89
2019-06-05 18:00:00 13.2 9 Nordeste 20 Este 0 -- -- 78
2019-06-05 17:00:00 13.8 10 Nordeste 20 Nordeste 0 -- -- 75
2019-06-05 16:00:00 14.7 10 Nordeste 18 Nordeste 0 -- -- 73
2019-06-05 15:00:00 18.4 5 Norte 15 Oeste 0 -- -- 59
2019-06-05 14:00:00 18.2 6 Oeste 15 Este 0 -- -- 55
2019-06-05 13:00:00 16.5 9 Nordeste 18 Nordeste 0 -- -- 63
2019-06-05 12:00:00 14.4 11 Nordeste 21 Nordeste 0 -- -- 69
2019-06-05 11:00:00 14.5 10 Nordeste 21 Este 0 -- -- 67
2019-06-05 10:00:00 14.8 6 Este 19 Este 0 -- -- 52
2019-06-05 09:00:00 9.5 10 Nordeste 24 Nordeste 0 -- -- 96
2019-06-05 08:00:00 8.4 13 Este 26 Nordeste 0 -- -- 97
2019-06-05 07:00:00 8.4 13 Nordeste 24 Nordeste 0 -- -- 96
2019-06-05 06:00:00 8.5 10 Este 19 Nordeste 0 -- -- 95
2019-06-05 05:00:00 10.1 6 Este 17 Nordeste 0 -- -- 77
2019-06-05 04:00:00 11.6 8 Este 15 Este 0 -- -- 58
2019-06-05 03:00:00 13.6 3 Norte 16 Norte 0 -- -- 38
2019-06-05 02:00:00 13 3 Sudeste 15 Sudoeste 0 -- -- 45
2019-06-05 01:00:00 13.9 5 Oeste 15 Noroeste 0 -- -- 41
2019-06-05 00:00:00 12.6 2 Este 10 Este 0 -- -- 45
2019-06-04 23:00:00 14.3 5 Oeste 25 Noroeste 0 -- -- 35
2019-06-04 22:00:00 14.6 5 Noroeste 15 Noroeste 0 -- -- 29
2019-06-04 21:00:00 15.9 5 Norte 16 Noroeste 0 -- -- 18
2019-06-04 20:00:00 19.6 7 Norte 29 Oeste 0 -- -- 16
2019-06-04 19:00:00 22 7 Noroeste 24 Oeste 0 -- -- 25
2019-06-04 18:00:00 22 12 Oeste 29 Oeste 0 -- -- 30
2019-06-04 17:00:00 22.8 19 Oeste 39 Oeste 0 -- -- 26
2019-06-04 16:00:00 23.6 9 Noroeste 24 Oeste 0 -- -- 23
2019-06-04 15:00:00 23.2 6 Nordeste 17 Noroeste 0 -- -- 28
2019-06-04 14:00:00 22.6 8 Nordeste 19 Nordeste 0 -- -- 26
2019-06-04 13:00:00 23.5 8 Norte 20 Norte 0 -- -- 23
2019-06-04 12:00:00 22.9 7 Norte 17 Norte 0 -- -- 21
2019-06-04 11:00:00 22 5 Nordeste 17 Norte 0 -- -- 16
2019-06-04 10:00:00 21.5 8 Este 21 Este 0 -- -- 12
2019-06-04 09:00:00 20.2 8 Este 20 Este 0 -- -- 9
2019-06-04 08:00:00 17.9 10 Este 23 Este 0 -- -- 9
2019-06-04 07:00:00 17.3 10 Este 25 Nordeste 0 -- -- 9
2019-06-04 06:00:00 17.7 10 Este 19 Este 0 -- -- 9
2019-06-04 05:00:00 17.3 8 Este 20 Este 0 -- -- 8
2019-06-04 04:00:00 18 11 Este 21 Este 0 -- -- 12
2019-06-04 03:00:00 17 11 Este 18 Este 0 -- -- 11
2019-06-04 02:00:00 15.8 10 Este 20 Este 0 -- -- 21
2019-06-04 01:00:00 16.9 12 Este 27 Este 0 -- -- 17
2019-06-04 00:00:00 16.2 10 Este 21 Este 0 -- -- 19
2019-06-03 23:00:00 17.6 12 Este 28 Este 0 -- -- 9
2019-06-03 22:00:00 18.1 11 Este 25 Nordeste 0 -- -- 8
2019-06-03 21:00:00 18.2 12 Este 24 Este 0 -- -- 10
2019-06-03 20:00:00 19.3 13 Este 26 Este 0 -- -- 13
2019-06-03 19:00:00 21.2 13 Este 27 Este 0 -- -- 13
2019-06-03 18:00:00 21.8 13 Este 26 Nordeste 0 -- -- 14
2019-06-03 17:00:00 22.5 14 Nordeste 27 Este 0 -- -- 16
2019-06-03 16:00:00 23.1 15 Este 26 Este 0 -- -- 17
2019-06-03 15:00:00 24.2 9 Este 21 Este 0 -- -- 18
2019-06-03 14:00:00 23.7 10 Este 28 Este 0 -- -- 12
2019-06-03 13:00:00 23.8 10 Este 27 Este 0 -- -- 18
2019-06-03 12:00:00 23.8 14 Este 31 Este 0 -- -- 16
2019-06-03 11:00:00 22.9 15 Este 33 Este 0 -- -- 15
2019-06-03 10:00:00 22.2 17 Este 37 Este 0 -- -- 15
2019-06-03 09:00:00 20.9 19 Este 38 Este 0 -- -- 16
2019-06-03 08:00:00 19.3 21 Este 37 Este 0 -- -- 16
2019-06-03 07:00:00 18.9 22 Este 40 Este 0 -- -- 17
2019-06-03 06:00:00 18.9 22 Este 39 Este 0 -- -- 17
2019-06-03 05:00:00 19 22 Este 39 Este 0 -- -- 17
2019-06-03 04:00:00 18.6 24 Este 44 Este 0 -- -- 13
2019-06-03 03:00:00 18 24 Este 43 Nordeste 0 -- -- 13
2019-06-03 02:00:00 17.6 24 Este 43 Este 0 -- -- 16
2019-06-03 01:00:00 17.5 21 Este 40 Este 0 -- -- 17
2019-06-03 00:00:00 17.5 19 Este 38 Este 0 -- -- 17
2019-06-02 23:00:00 16.5 20 Este 36 Este 0 -- -- 27
2019-06-02 22:00:00 18.4 16 Sudeste 30 Este 0 -- -- 31
2019-06-02 21:00:00 18.5 17 Este 28 Este 0 -- -- 35
2019-06-02 20:00:00 20.5 16 Este 28 Este 0 -- -- 32
2019-06-02 19:00:00 22.3 13 Este 26 Nordeste 0 -- -- 30
2019-06-02 18:00:00 23.7 10 Este 22 Este 0 -- -- 33
2019-06-02 17:00:00 24.5 9 Este 21 Este 0 -- -- 33
2019-06-02 16:00:00 25 8 Nordeste 20 Este 0 -- -- 29
2019-06-02 15:00:00 25 7 Nordeste 26 Nordeste 0 -- -- 28
2019-06-02 14:00:00 25 10 Este 26 Este 0 -- -- 27
2019-06-02 13:00:00 24.6 13 Este 26 Este 0 -- -- 27
2019-06-02 12:00:00 24.2 13 Este 39 Sudeste 0 -- -- 26
2019-06-02 11:00:00 23.5 18 Este 39 Este 0 -- -- 26
2019-06-02 10:00:00 22.8 16 Este 34 Este 0 -- -- 25
2019-06-02 09:00:00 21.9 17 Este 35 Este 0 -- -- 27
2019-06-02 08:00:00 19.5 18 Este 28 Este 0 -- -- 31
2019-06-02 07:00:00 18.8 17 Este 30 Este 0 -- -- 32
2019-06-02 06:00:00 18.7 18 Este 33 Sudeste 0 -- -- 27
2019-06-02 05:00:00 18.4 18 Este 38 Este 0 -- -- 25
2019-06-02 04:00:00 18.1 16 Este 30 Este 0 -- -- 26
2019-06-02 03:00:00 17.2 17 Este 26 Este 0 -- -- 29
2019-06-02 02:00:00 17.2 15 Este 30 Este 0 -- -- 29
2019-06-02 01:00:00 19.8 22 Este 32 Este 0 -- -- 16
2019-06-02 00:00:00 19.8 18 Sudeste 32 Sudeste 0 -- -- 18
2019-06-01 23:00:00 20 19 Sudeste 31 Sudeste 0 -- -- 15
2019-06-01 22:00:00 20.3 18 Sudeste 31 Este 0 -- -- 14
2019-06-01 21:00:00 20.4 14 Sudeste 24 Sudeste 0 -- -- 16
2019-06-01 20:00:00 23.8 6 Sudeste 14 Sur 0 -- -- 19
2019-06-01 19:00:00 24.8 10 Sur 19 Sur 0 -- -- 17
2019-06-01 18:00:00 25.7 9 Sur 22 Sudeste 0 -- -- 17
2019-06-01 17:00:00 25.1 11 Sudeste 20 Sudeste 0 -- -- 18
2019-06-01 16:00:00 26.1 8 Oeste 18 Sudoeste 0 -- -- 31
2019-06-01 15:00:00 26.5 9 Sur 22 Sur 0 -- -- 23
2019-06-01 14:00:00 25.1 8 Oeste 15 Oeste 0 -- -- 32
2019-06-01 13:00:00 25.3 8 Oeste 16 Noroeste 0 -- -- 30
2019-06-01 12:00:00 24.1 8 Oeste 14 Oeste 0 -- -- 26
2019-06-01 11:00:00 25.5 4 Sudoeste 16 Este 0 -- -- 24
2019-06-01 10:00:00 25 6 Este 24 Este 0 -- -- 23
2019-06-01 09:00:00 22.7 10 Este 23 Sudeste 0 -- -- 23
2019-06-01 08:00:00 19.4 14 Sudeste 29 Sudeste 0 -- -- 28
2019-06-01 07:00:00 18.8 20 Sudeste 34 Este 0 -- -- 28
2019-06-01 06:00:00 18.2 19 Sudeste 31 Este 0 -- -- 30
2019-06-01 05:00:00 18.3 13 Este 23 Sudeste 0 -- -- 30
2019-06-01 04:00:00 18.1 10 Este 19 Este 0 -- -- 33
2019-06-01 03:00:00 18.5 11 Este 23 Este 0 -- -- 31
2019-06-01 02:00:00 17.9 10 Este 22 Este 0 -- -- 20
2019-06-01 01:00:00 17.7 11 Este 18 Este 0 -- -- 23
2019-06-01 00:00:00 17.5 7 Este 13 Este 0 -- -- 26
2019-05-31 23:00:00 17.4 6 Este 9 Nordeste 0 -- -- 27
2019-05-31 22:00:00 17.8 5 Este 6 Este 0 -- -- 24
2019-05-31 21:00:00 18.8 2 Este 6 Noroeste 0 -- -- 34
2019-05-31 20:00:00 25.1 3 Norte 12 Oeste 0 -- -- 34
2019-05-31 19:00:00 25 8 Oeste 15 Oeste 0 -- -- 32
2019-05-31 18:00:00 25.5 7 Norte 16 Noroeste 0 -- -- 35
2019-05-31 17:00:00 25.8 7 Oeste 20 Oeste 0 -- -- 30
2019-05-31 16:00:00 24.7 9 Oeste 18 Oeste 0 -- -- 29
2019-05-31 15:00:00 25 7 Noroeste 15 Oeste 0 -- -- 25
2019-05-31 14:00:00 24.3 10 Oeste 24 Noroeste 0 -- -- 26
2019-05-31 13:00:00 25.3 7 Oeste 19 Este 0 -- -- 23
2019-05-31 12:00:00 24.3 11 Este 26 Este 0 -- -- 21
2019-05-31 11:00:00 23.2 10 Este 24 Nordeste 0 -- -- 19
2019-05-31 10:00:00 22.9 11 Este 23 Nordeste 0 -- -- 16
2019-05-31 09:00:00 21.8 10 Este 21 Este 0 -- -- 16
2019-05-31 08:00:00 18.6 11 Este 18 Este 0 -- -- 20
2019-05-31 07:00:00 17.5 12 Este 18 Este 0 -- -- 21
2019-05-31 06:00:00 17.6 12 Este 21 Este 0 -- -- 20
2019-05-31 05:00:00 17.1 10 Este 18 Este 0 -- -- 19
2019-05-31 04:00:00 16.1 11 Este 20 Este 0 -- -- 17
2019-05-31 03:00:00 15.7 10 Este 18 Este 0 -- -- 17
2019-05-31 02:00:00 14.8 9 Este 15 Nordeste 0 -- -- 22
2019-05-31 01:00:00 14.6 4 Este 8 Este 0 -- -- 26
2019-05-31 00:00:00 14.5 4 Este 8 Este 0 -- -- 24
2019-05-30 23:00:00 14.5 5 Nordeste 10 Este 0 -- -- 50
2019-05-30 22:00:00 15.6 4 Nordeste 7 Nordeste 0 -- -- 50
2019-05-30 21:00:00 17 3 Este 8 Nordeste 0 -- -- 47
2019-05-30 20:00:00 24.3 4 Noroeste 13 Oeste 0 -- -- 32
2019-05-30 19:00:00 24.4 6 Oeste 15 Oeste 0 -- -- 33
2019-05-30 18:00:00 23.2 10 Oeste 16 Oeste 0 -- -- 36
2019-05-30 17:00:00 24 9 Oeste 20 Oeste 0 -- -- 34
2019-05-30 16:00:00 24.5 6 Oeste 18 Noroeste 0 -- -- 30
2019-05-30 15:00:00 23.4 10 Oeste 21 Noroeste 0 -- -- 31
2019-05-30 14:00:00 -- -- -- -- -- -- -- -- --
2019-05-30 13:00:00 23.3 6 Oeste 14 Oeste 0 -- -- 27
2019-05-30 12:00:00 23.7 5 Oeste 14 Oeste 0 -- -- 23
2019-05-30 11:00:00 22.8 6 Este 19 Nordeste 0 -- -- 18
2019-05-30 10:00:00 22.7 7 Este 15 Este 0 -- -- 17
2019-05-30 09:00:00 20.4 8 Este 17 Nordeste 0 -- -- 19
2019-05-30 08:00:00 16.3 8 Este 14 Este 0 -- -- 23
2019-05-30 07:00:00 15.1 8 Este 18 Este 0 -- -- 25
2019-05-30 06:00:00 15.2 8 Este 19 Este 0 -- -- 26
2019-05-30 05:00:00 15 8 Este 19 Este 0 -- -- 26
2019-05-30 04:00:00 14.4 9 Este 21 Este 0 -- -- 29
2019-05-30 03:00:00 14.8 10 Este 17 Este 0 -- -- 28
2019-05-30 02:00:00 14.5 10 Este 21 Nordeste 0 -- -- 32
2019-05-30 01:00:00 14.9 10 Este 21 Nordeste 0 -- -- 30
2019-05-30 00:00:00 13.4 8 Nordeste 17 Este 0 -- -- 22
2019-05-29 23:00:00 13.3 6 Nordeste 13 Nordeste 0 -- -- 28
2019-05-29 22:00:00 15.1 6 Nordeste 10 Nordeste 0 -- -- 44
2019-05-29 21:00:00 15.4 3 Nordeste 7 Nordeste 0 -- -- 36
2019-05-29 20:00:00 21.7 4 Nordeste 12 Oeste 0 -- -- 36
2019-05-29 19:00:00 22.6 6 Noroeste 17 Oeste 0 -- -- 37
2019-05-29 18:00:00 22.9 9 Oeste 17 Noroeste 0 -- -- 43
2019-05-29 17:00:00 22.5 8 Oeste 19 Noroeste 0 -- -- 42
2019-05-29 16:00:00 22.4 10 Oeste 19 Oeste 0 -- -- 42
2019-05-29 15:00:00 23.2 5 Norte 17 Este 0 -- -- 38
2019-05-29 14:00:00 20.7 8 Nordeste 17 Este 0 -- -- 37
2019-05-29 13:00:00 22 5 Nordeste 15 Nordeste 0 -- -- 29
2019-05-29 12:00:00 21.3 6 Nordeste 15 Nordeste 0 -- -- 27
2019-05-29 11:00:00 20.4 8 Este 20 Nordeste 0 -- -- 22
2019-05-29 10:00:00 19.1 9 Este 21 Nordeste 0 -- -- 22
2019-05-29 09:00:00 17.6 10 Este 20 Nordeste 0 -- -- 23
2019-05-29 08:00:00 14.5 10 Este 20 Nordeste 0 -- -- 28
2019-05-29 07:00:00 12.9 6 Este 14 Nordeste 0 -- -- 29
2019-05-29 06:00:00 12.6 9 Nordeste 15 Nordeste 0 -- -- 31
2019-05-29 05:00:00 10.9 8 Este 18 Nordeste 0 -- -- 36
2019-05-29 04:00:00 12 7 Este 14 Este 0 -- -- 36
2019-05-29 03:00:00 12.6 8 Este 17 Nordeste 0 -- -- 34
2019-05-29 02:00:00 13 8 Este 13 Este 0 -- -- 34
2019-05-29 01:00:00 13 6 Este 14 Este 0 -- -- 31
2019-05-29 00:00:00 13.2 6 Este 15 Este 0 -- -- 34
2019-05-28 23:00:00 12.4 6 Este 13 Este 0 -- -- 39
2019-05-28 22:00:00 13.6 7 Este 16 Este 0 -- -- 36
2019-05-28 21:00:00 14.6 7 Este 14 Nordeste 0 -- -- 30
2019-05-28 20:00:00 17.4 8 Nordeste 14 Este 0 -- -- 31
2019-05-28 19:00:00 19.3 6 Nordeste 14 Este 0 -- -- 33
2019-05-28 18:00:00 19.8 6 Nordeste 15 Este 0 -- -- 39
2019-05-28 17:00:00 19.4 8 Este 19 Nordeste 0 -- -- 38
2019-05-28 16:00:00 19.6 9 Este 19 Nordeste 0 -- -- 35
2019-05-28 15:00:00 20.4 7 Nordeste 24 Este 0 -- -- 28
2019-05-28 14:00:00 20.4 6 Nordeste 21 Este 0 -- -- 28
2019-05-28 13:00:00 19.9 7 Nordeste 23 Sudeste 0 -- -- 31
2019-05-28 12:00:00 18.9 8 Este 30 Nordeste 0 -- -- 35
2019-05-28 11:00:00 17.6 14 Este 28 Este 0 -- -- 36
2019-05-28 10:00:00 16.1 17 Este 30 Nordeste 0 -- -- 39
2019-05-28 09:00:00 15.2 18 Este 31 Nordeste 0 -- -- 42
2019-05-28 08:00:00 13 15 Este 31 Este 0 -- -- 46
2019-05-28 07:00:00 12.5 16 Este 28 Este 0 -- -- 45
2019-05-28 06:00:00 12.6 15 Este 30 Este 0 -- -- 45
2019-05-28 05:00:00 12.7 18 Este 32 Nordeste 0 -- -- 47
2019-05-28 04:00:00 12.6 15 Este 26 Este 0 -- -- 48
2019-05-28 03:00:00 12.4 17 Este 27 Este 0 -- -- 48
2019-05-28 02:00:00 12.7 15 Este 30 Este 0 -- -- 48
2019-05-28 01:00:00 12.8 16 Este 30 Nordeste 0 -- -- 47
2019-05-28 00:00:00 12.9 14 Este 28 Este 0 -- -- 44